Time;durP1;ratioP1;P1;durP2;ratioP2;P2;SDS_P1;SDS_P2;PMS_P1;PMS_P2;Temp;Humidity;BMP_temperature;BMP_pressure;BME280_temperature;BME280_humidity;BME280_pressure;Samples;Min_cycle;Max_cycle;Signal;HPM_P1;HPM_P2
2022/04/16 00:01:17;;;;;;;5.03;3.67;;;12.20;96.40;;;10.69;70.01;100345.22;10336254;28;96628;-82
2022/04/16 00:06:20;;;;;;;5.77;4.27;;;12.10;96.80;;;10.53;70.90;100340.72;10351427;28;96813;-83
2022/04/16 00:11:23;;;;;;;5.07;3.80;;;11.90;97.40;;;10.37;71.46;100344.16;10382870;28;96697;-82
2022/04/16 00:16:26;;;;;;;6.27;4.37;;;11.80;98.90;;;10.23;72.21;100335.97;10376163;28;96538;-83
2022/04/16 00:21:30;;;;;;;5.63;4.27;;;11.60;99.90;;;10.10;72.64;100336.44;10337712;28;96658;-82
2022/04/16 00:26:40;;;;;;;6.93;5.03;;;11.50;99.90;;;9.98;73.28;100335.09;10366557;28;96574;-82
2022/04/16 00:31:47;;;;;;;7.47;5.53;;;11.30;99.90;;;9.86;74.20;100343.34;10337923;28;96831;-83
2022/04/16 00:36:50;;;;;;;8.17;6.10;;;11.20;99.90;;;9.79;74.22;100347.63;10333344;28;96613;-82
2022/04/16 00:41:54;;;;;;;9.63;6.60;;;11.10;99.90;;;9.73;75.28;100348.25;10372427;28;97625;-82
2022/04/16 00:46:57;;;;;;;9.77;6.97;;;11.10;99.90;;;9.62;75.96;100356.47;10355748;28;96711;-82
2022/04/16 00:52:01;;;;;;;10.17;7.13;;;10.90;99.90;;;9.51;76.11;100354.09;10299750;28;96437;-82
2022/04/16 00:57:04;;;;;;;9.87;6.93;;;10.90;99.90;;;9.39;76.80;100357.00;10354741;28;96997;-82
2022/04/16 01:02:09;;;;;;;9.97;7.10;;;10.80;99.90;;;9.29;77.10;100355.44;10362690;28;96916;-82
2022/04/16 01:07:12;;;;;;;10.37;7.10;;;10.70;99.90;;;9.19;77.56;100365.34;10333291;28;96580;-82
2022/04/16 01:12:15;;;;;;;12.07;7.53;;;10.60;99.90;;;9.07;78.35;100357.63;10332577;28;96534;-82
2022/04/16 01:17:18;;;;;;;10.87;7.07;;;10.50;99.90;;;9.00;78.32;100364.53;10299830;28;96581;-82
2022/04/16 01:22:29;;;;;;;11.43;8.07;;;10.40;99.90;;;8.96;78.50;100362.34;10335322;28;96611;-82
2022/04/16 01:27:32;;;;;;;11.57;8.45;;;10.30;99.90;;;8.92;78.67;100355.66;10336588;28;96576;-82
2022/04/16 01:32:36;;;;;;;12.27;9.33;;;10.30;99.90;;;8.85;78.79;100337.72;10371659;28;96553;-82
2022/04/16 01:37:39;;;;;;;12.47;8.77;;;10.20;99.90;;;8.80;78.90;100337.34;10364699;28;96433;-82
2022/04/16 01:42:45;;;;;;;13.27;9.37;;;10.20;99.90;;;8.73;79.05;100338.97;10326538;28;96516;-82
2022/04/16 01:47:49;;;;;;;12.63;8.87;;;10.10;99.90;;;8.73;79.00;100346.91;10366410;28;96837;-83
2022/04/16 01:52:52;;;;;;;16.93;10.80;;;10.10;99.90;;;8.80;78.99;100339.16;10352745;28;96629;-83
2022/04/16 01:57:55;;;;;;;14.47;10.43;;;10.00;99.90;;;8.83;78.55;100325.63;10370923;28;96882;-82
2022/04/16 02:02:58;;;;;;;16.23;10.53;;;10.10;99.90;;;8.85;78.21;100326.31;10347862;28;98310;-82
2022/04/16 02:08:01;;;;;;;14.07;9.23;;;10.10;99.90;;;8.84;78.14;100317.53;10346963;28;96491;-83
2022/04/16 02:13:04;;;;;;;14.17;9.97;;;10.20;99.90;;;8.86;78.15;100327.97;10386365;28;97538;-82
2022/04/16 02:18:07;;;;;;;13.63;9.47;;;10.20;99.90;;;8.87;77.78;100323.50;10347159;28;96861;-83
2022/04/16 02:23:10;;;;;;;13.83;9.70;;;10.20;99.90;;;8.85;78.50;100321.84;10355320;28;96581;-83
2022/04/16 02:28:14;;;;;;;13.23;9.20;;;10.10;99.90;;;8.84;78.23;100316.69;10357009;28;96450;-83
2022/04/16 02:33:16;;;;;;;12.47;9.43;;;10.10;99.90;;;8.85;78.27;100315.69;10354629;28;96575;-82
2022/04/16 02:38:20;;;;;;;12.40;8.73;;;10.10;99.90;;;8.85;77.90;100305.94;10351131;28;96444;-82
2022/04/16 02:43:23;;;;;;;12.13;8.53;;;10.10;99.90;;;8.85;77.64;100305.94;10345243;28;96604;-82
2022/04/16 02:48:26;;;;;;;12.50;8.60;;;10.20;99.90;;;8.86;77.42;100314.72;10344791;28;96576;-82
2022/04/16 02:53:31;;;;;;;13.60;8.50;;;10.20;99.90;;;8.85;77.16;100300.63;10296964;28;96754;-82
2022/04/16 02:58:34;;;;;;;11.27;7.93;;;10.20;99.90;;;8.91;76.58;100303.66;10339970;28;97581;-82
2022/04/16 03:03:37;;;;;;;12.90;8.80;;;10.20;99.90;;;8.96;75.90;100296.91;10308469;28;96605;-83
2022/04/16 03:08:39;;;;;;;11.67;8.73;;;10.20;99.90;;;8.99;75.67;100307.19;10320896;28;96433;-83
2022/04/16 03:13:42;;;;;;;11.77;8.80;;;10.30;99.90;;;9.00;75.44;100298.28;10351858;28;96536;-82
2022/04/16 03:18:45;;;;;;;10.30;7.67;;;10.30;99.90;;;8.99;75.14;100301.06;10352942;28;96726;-81
2022/04/16 03:23:48;;;;;;;9.90;7.20;;;10.30;99.90;;;8.96;75.20;100290.78;10337602;28;97357;-83
2022/04/16 03:28:51;;;;;;;10.07;7.03;;;10.20;99.90;;;8.89;75.36;100298.53;10338446;28;98008;-82
2022/04/16 03:33:54;;;;;;;9.77;7.43;;;10.20;99.90;;;8.82;75.18;100305.44;10337830;28;97393;-82
2022/04/16 03:38:57;;;;;;;10.30;6.90;;;10.10;99.90;;;8.77;75.52;100313.00;10354542;28;96477;-84
2022/04/16 03:44:01;;;;;;;11.30;7.07;;;10.10;99.90;;;8.71;75.57;100318.91;10357122;28;98620;-84
2022/04/16 03:49:04;;;;;;;9.13;6.13;;;10.00;99.90;;;8.62;76.01;100304.75;10348019;28;96518;-85
2022/04/16 04:04:51;;;;;;;8.40;6.38;;;9.90;99.90;;;8.59;76.00;100339.50;10334451;28;96871;-82
2022/04/16 04:09:54;;;;;;;10.67;7.80;;;9.90;99.90;;;8.55;76.05;100346.06;10337678;28;97373;-82
2022/04/16 04:14:57;;;;;;;10.07;6.63;;;9.90;99.90;;;8.48;76.10;100342.38;10367613;28;96672;-84
2022/04/16 04:20:00;;;;;;;8.23;5.73;;;9.80;99.90;;;8.42;76.76;100345.63;10336958;28;96673;-84
2022/04/16 04:25:04;;;;;;;8.47;6.13;;;9.70;99.90;;;8.39;76.94;100361.78;10333695;28;96865;-82
2022/04/16 04:30:08;;;;;;;9.30;6.00;;;9.70;99.90;;;8.41;77.03;100354.56;10336727;28;96534;-83
2022/04/16 04:35:11;;;;;;;8.90;5.83;;;9.70;99.90;;;8.47;76.83;100351.31;10350023;28;96681;-83
2022/04/16 04:40:14;;;;;;;6.80;4.93;;;9.70;99.90;;;8.50;76.52;100365.06;10383239;28;97649;-82
2022/04/16 04:45:18;;;;;;;38.63;18.87;;;9.70;99.90;;;8.52;76.57;100351.69;10396631;28;96287;-83
2022/04/16 04:50:21;;;;;;;8.03;5.47;;;9.80;99.90;;;8.62;76.17;100360.38;10340882;28;96646;-83
2022/04/16 04:55:24;;;;;;;7.80;5.30;;;9.80;99.90;;;8.79;75.45;100356.88;10353672;28;96720;-83
2022/04/16 05:00:26;;;;;;;7.10;5.13;;;10.00;99.90;;;8.94;74.92;100362.50;10355160;28;96521;-82
2022/04/16 05:05:29;;;;;;;6.97;4.90;;;10.10;99.90;;;9.09;74.01;100368.06;10343476;28;98124;-83
2022/04/16 05:10:32;;;;;;;6.30;4.30;;;10.30;99.90;;;9.18;73.22;100372.47;10354471;28;96510;-83
2022/04/16 05:15:35;;;;;;;6.50;4.60;;;10.40;99.90;;;9.25;72.39;100389.41;10340357;28;96610;-83
2022/04/16 05:20:38;;;;;;;5.77;4.17;;;10.40;99.90;;;9.30;71.95;100394.25;10333835;28;96918;-83
2022/04/16 05:25:41;;;;;;;7.03;4.30;;;10.50;99.90;;;9.34;71.78;100396.41;10329803;28;96725;-83
2022/04/16 05:30:44;;;;;;;8.20;4.47;;;10.50;99.90;;;9.38;71.75;100403.09;10340277;28;96572;-83
2022/04/16 05:35:48;;;;;;;6.80;4.07;;;10.60;99.90;;;9.41;71.14;100409.06;10351087;28;98132;-84
2022/04/16 05:40:51;;;;;;;6.30;3.93;;;10.60;99.90;;;9.48;70.95;100412.78;10369662;28;98029;-83
2022/04/16 05:45:54;;;;;;;6.87;4.53;;;10.60;99.90;;;9.56;70.62;100418.97;10358950;28;97200;-86
2022/04/16 05:50:57;;;;;;;5.77;3.87;;;10.70;99.90;;;9.66;70.48;100418.88;10328152;28;96550;-84
2022/04/16 05:56:00;;;;;;;6.00;4.10;;;10.80;99.90;;;9.77;69.69;100417.75;10334927;28;98195;-85
2022/04/16 06:01:03;;;;;;;7.37;4.13;;;10.90;99.90;;;9.89;69.36;100413.84;10337033;28;96868;-82
2022/04/16 06:06:08;;;;;;;6.60;4.63;;;11.00;99.90;;;10.14;69.19;100415.63;10334524;28;96544;-83
2022/04/16 06:11:12;;;;;;;5.93;4.20;;;11.20;99.90;;;10.40;67.60;100418.25;10338905;28;97133;-84
2022/04/16 06:16:15;;;;;;;8.90;5.20;;;11.50;99.90;;;10.63;67.21;100428.28;10351411;28;98664;-84
2022/04/16 06:21:18;;;;;;;5.97;3.97;;;11.70;99.90;;;10.74;66.18;100430.63;10340120;28;96695;-83
2022/04/16 06:26:21;;;;;;;4.10;3.10;;;11.80;98.20;;;10.78;65.30;100431.94;10362059;28;96596;-83
2022/04/16 06:31:24;;;;;;;5.27;3.57;;;11.90;98.20;;;10.80;64.96;100437.94;10339638;28;98166;-83
2022/04/16 06:36:27;;;;;;;4.37;3.27;;;11.90;97.70;;;10.83;64.90;100432.28;10349656;28;96529;-83
2022/04/16 06:41:30;;;;;;;5.90;3.40;;;12.00;97.40;;;10.87;64.63;100438.13;10358841;28;96592;-83
2022/04/16 06:46:33;;;;;;;4.77;3.33;;;12.00;97.10;;;10.87;64.40;100438.94;10363947;28;98163;-83
2022/04/16 06:51:36;;;;;;;82.10;22.23;;;12.10;96.80;;;10.86;64.56;100447.94;10330177;28;98391;-82
2022/04/16 06:56:39;;;;;;;5.43;3.50;;;12.10;97.00;;;10.83;64.74;100447.41;10336353;28;98008;-83
2022/04/16 07:01:45;;;;;;;10.33;4.20;;;12.10;96.70;;;10.86;64.86;100447.09;10337402;28;96734;-82
2022/04/16 07:06:48;;;;;;;30.57;18.97;;;12.10;96.60;;;10.91;63.98;100456.22;10324430;28;96633;-83
2022/04/16 07:11:51;;;;;;;6.47;4.00;;;12.10;96.20;;;11.06;64.46;100452.94;10331128;28;96698;-83
2022/04/16 07:16:54;;;;;;;4.60;3.00;;;12.20;96.20;;;11.26;63.71;100460.41;10347123;28;97372;-83
2022/04/16 07:21:58;;;;;;;7.87;4.23;;;12.40;95.90;;;11.44;62.36;100468.22;10351568;28;98473;-83
2022/04/16 07:27:01;;;;;;;5.97;3.10;;;12.60;94.90;;;11.51;61.54;100469.25;10336886;28;96806;-83
2022/04/16 07:32:04;;;;;;;4.03;3.07;;;12.70;93.80;;;11.58;61.18;100477.41;10338232;28;96704;-83
2022/04/16 07:37:09;;;;;;;4.37;2.70;;;12.70;92.90;;;11.58;60.43;100476.56;10345453;28;96510;-83
2022/04/16 07:42:12;;;;;;;4.00;2.43;;;12.70;92.40;;;11.71;60.49;100480.38;10350898;28;96761;-84
2022/04/16 07:47:15;;;;;;;4.47;2.80;;;12.80;92.40;;;12.03;61.08;100479.50;10337997;28;96480;-84
2022/04/16 07:52:18;;;;;;;3.90;2.57;;;13.10;92.90;;;12.33;58.74;100471.75;10338560;28;96774;-83
2022/04/16 07:57:21;;;;;;;4.23;2.70;;;13.30;90.80;;;12.41;58.16;100458.38;10354928;28;98348;-83
2022/04/16 08:02:24;;;;;;;4.33;2.60;;;13.30;90.10;;;13.25;56.85;100445.22;10321621;28;98162;-83
2022/04/16 08:07:38;;;;;;;3.03;2.20;;;13.60;90.30;;;13.65;53.36;100460.06;10344730;28;100337;-83
2022/04/16 08:12:54;;;;;;;3.78;2.50;;;13.90;83.20;;;13.80;52.82;100452.09;10365649;28;96927;-82
2022/04/16 08:18:02;;;;;;;3.90;2.30;;;14.30;83.10;;;13.64;52.44;100461.91;10413460;28;96632;-83
2022/04/16 08:23:09;;;;;;;3.17;2.28;;;14.30;81.30;;;13.52;52.44;100475.88;10404536;28;96580;-84
2022/04/16 08:28:57;;;;;;;3.63;2.47;;;14.30;78.80;;;13.49;52.63;100476.22;10362978;28;96367;-83
2022/04/16 08:34:11;;;;;;;3.88;2.70;;;14.40;78.70;;;13.55;52.32;100472.84;10388472;28;96600;-82
2022/04/16 08:39:43;;;;;;;11.25;6.65;;;14.50;78.00;;;13.59;52.16;100482.16;10313699;28;96617;-82
2022/04/16 08:45:24;;;;;;;;;;;14.60;76.80;;;13.62;51.32;100466.63;10316094;28;96563;-83
2022/04/16 08:50:36;;;;;;;4.63;2.40;;;14.70;76.20;;;13.77;52.15;100474.63;10338047;28;96657;-82
2022/04/16 08:55:58;;;;;;;3.05;2.00;;;14.80;76.50;;;13.78;50.89;100483.47;10350167;28;96601;-83
2022/04/16 09:01:29;;;;;;;2.50;2.00;;;14.90;73.90;;;13.86;50.93;100481.56;10358794;28;96894;-82
2022/04/16 09:06:46;;;;;;;3.70;1.83;;;14.90;74.00;;;13.82;51.34;100482.13;10334974;28;96742;-83
2022/04/16 09:12:03;;;;;;;5.65;2.60;;;15.00;73.40;;;13.81;51.51;100485.81;10343414;28;97726;-81
2022/04/16 09:17:09;;;;;;;4.75;3.60;;;14.90;74.20;;;14.09;51.34;100462.81;10363933;28;96963;-81
2022/04/16 09:22:12;;;;;;;4.00;2.67;;;15.10;74.10;;;14.25;50.59;100469.78;10374903;28;96534;-81
2022/04/16 09:27:16;;;;;;;2.30;1.90;;;15.30;73.50;;;14.24;49.90;100469.97;10352897;28;96602;-81
2022/04/16 09:32:23;;;;;;;2.88;1.77;;;15.30;72.10;;;14.21;49.02;100473.84;10358788;28;96564;-81
2022/04/16 09:37:26;;;;;;;2.13;1.60;;;15.30;69.90;;;14.41;50.10;100460.75;10363258;28;97277;-83
2022/04/16 09:42:29;;;;;;;3.00;1.88;;;15.50;71.60;;;14.77;49.57;100468.00;10362074;28;96583;-81
2022/04/16 09:47:34;;;;;;;2.25;1.55;;;15.70;70.90;;;15.17;48.53;100459.38;10348525;28;96655;-81
2022/04/16 09:52:39;;;;;;;2.40;1.73;;;16.10;70.40;;;15.49;46.41;100457.19;10347452;28;96444;-81
2022/04/16 09:57:43;;;;;;;3.63;1.35;;;16.50;68.20;;;15.90;47.18;100456.50;10358801;28;96702;-81
2022/04/16 10:02:47;;;;;;;2.35;1.27;;;16.80;68.10;;;16.16;45.11;100456.63;10371378;28;96689;-80
2022/04/16 10:07:54;;;;;;;2.35;1.42;;;17.10;65.30;;;15.93;44.45;100454.22;10352537;28;96578;-82
2022/04/16 10:13:04;;;;;;;2.00;1.25;;;17.00;64.00;;;15.53;44.97;100456.59;10343057;28;97176;-81
2022/04/16 10:18:10;;;;;;;1.63;1.00;;;16.70;63.70;;;15.14;45.84;100457.06;10379792;28;96549;-81
2022/04/16 10:23:24;;;;;;;1.98;1.23;;;16.40;64.30;;;14.86;46.52;100462.31;10365056;28;96578;-81
2022/04/16 10:28:52;;;;;;;4.50;2.00;;;16.20;64.60;;;14.70;48.35;100466.09;10309515;28;96873;-81
2022/04/16 10:34:18;;;;;;;2.50;1.70;;;16.10;65.80;;;14.36;49.89;100465.81;10352906;28;96767;-82
2022/04/16 10:39:31;;;;;;;2.92;1.90;;;15.80;67.70;;;14.03;51.25;100462.69;10306989;28;96908;-81
2022/04/16 10:44:48;;;;;;;3.50;2.85;;;15.50;68.40;;;13.89;52.22;100473.19;10317224;28;96717;-81
2022/04/16 10:49:57;;;;;;;2.92;1.55;;;15.30;69.20;;;13.81;53.63;100475.94;10338440;28;96889;-81
2022/04/16 10:55:05;;;;;;;28.88;12.68;;;15.20;70.50;;;13.63;55.92;100468.28;10343733;28;96549;-81
2022/04/16 11:00:13;;;;;;;10.80;6.07;;;15.10;72.30;;;13.30;59.02;100474.88;10317496;28;96585;-81
2022/04/16 11:05:45;;;;;;;12.10;5.93;;;14.90;75.30;;;13.15;60.16;100477.47;10335152;28;96670;-81
2022/04/16 11:10:58;;;;;;;5.45;2.95;;;14.70;78.60;;;13.19;61.08;100469.94;10353394;28;96531;-81
2022/04/16 11:16:09;;;;;;;4.68;2.10;;;14.60;82.20;;;13.45;60.67;100462.44;10324634;28;96744;-81
2022/04/16 11:21:18;;;;;;;242.43;67.70;;;14.70;83.20;;;13.93;58.72;100463.81;10320704;28;96489;-82
2022/04/16 11:37:14;;;;;;;8.95;3.47;;;15.70;73.10;;;14.62;49.03;100433.25;10332341;28;97868;-82
2022/04/16 11:42:18;;;;;;;2.53;1.15;;;15.80;70.20;;;14.54;48.82;100439.53;10338343;28;96694;-82
2022/04/16 11:47:23;;;;;;;3.13;1.35;;;15.70;68.70;;;14.49;47.54;100431.25;10350159;28;96576;-81
2022/04/16 11:52:32;;;;;;;3.85;1.63;;;15.70;67.00;;;14.38;48.20;100421.00;10385932;28;97940;-81
2022/04/16 11:57:36;;;;;;;1.60;1.10;;;15.60;66.90;;;14.25;47.61;100434.22;10353445;28;96669;-81
2022/04/16 12:02:47;;;;;;;1.25;0.90;;;15.50;64.80;;;14.26;46.64;100433.19;10330523;28;97304;-81
2022/04/16 12:07:53;;;;;;;0.85;0.80;;;15.40;64.90;;;14.40;47.17;100425.16;10294427;28;96409;-82
2022/04/16 12:12:56;;;;;;;1.92;0.90;;;15.50;65.20;;;14.54;46.20;100415.47;10307554;28;98483;-82
2022/04/16 12:18:15;;;;;;;1.20;0.82;;;15.60;63.60;;;14.73;45.67;100416.72;10320702;28;96548;-82
2022/04/16 12:23:23;;;;;;;1.63;1.02;;;15.70;62.90;;;14.97;45.18;100418.19;10358143;27;96954;-82
2022/04/16 12:28:28;;;;;;;0.93;0.73;;;16.00;62.20;;;15.31;44.38;100417.47;10326899;28;96596;-83
2022/04/16 12:33:31;;;;;;;1.13;0.60;;;16.20;61.60;;;15.54;43.44;100409.22;10354576;28;96604;-82
2022/04/16 12:38:34;;;;;;;1.20;0.70;;;16.50;60.60;;;15.51;42.79;100405.06;10356025;28;97548;-82
2022/04/16 12:43:38;;;;;;;1.15;0.65;;;16.60;59.60;;;15.52;42.64;100400.53;10345190;28;97375;-82
2022/04/16 12:48:41;;;;;;;1.05;0.63;;;16.60;59.00;;;15.40;42.53;100418.97;10367551;28;96682;-82
2022/04/16 12:53:44;;;;;;;1.15;0.50;;;16.50;58.50;;;15.21;42.02;100419.66;10381008;28;97798;-82
2022/04/16 12:58:47;;;;;;;0.85;0.50;;;16.30;57.70;;;14.92;42.13;100415.25;10337710;28;96516;-81
2022/04/16 13:03:51;;;;;;;1.90;0.90;;;16.10;57.90;;;14.70;43.03;100419.78;10372761;28;96627;-80
2022/04/16 13:08:56;;;;;;;1.85;0.60;;;15.90;58.50;;;14.44;43.44;100418.41;10323576;28;97899;-81
2022/04/16 13:13:59;;;;;;;1.40;0.80;;;15.70;58.70;;;14.17;44.30;100421.78;10348564;28;96543;-81
2022/04/16 13:19:01;;;;;;;2.45;1.40;;;15.40;59.40;;;13.96;44.13;100411.81;10346817;28;97404;-81
2022/04/16 13:24:07;;;;;;;1.40;0.70;;;15.20;59.30;;;13.85;44.53;100415.81;10335427;28;97589;-83
2022/04/16 13:29:11;;;;;;;1.30;0.63;;;15.10;59.70;;;13.81;44.73;100411.00;10342630;28;96553;-80
2022/04/16 13:34:14;;;;;;;1.50;0.95;;;15.00;59.70;;;13.80;45.26;100418.19;10353696;28;96759;-82
2022/04/16 13:44:39;;;;;;;4.75;1.35;;;15.10;61.10;;;13.86;46.16;100424.66;10333176;28;96712;-81
2022/04/16 13:49:42;;;;;;;2.72;1.10;;;15.00;61.50;;;13.69;48.02;100417.81;10331679;28;96506;-81
2022/04/16 13:54:45;;;;;;;1.00;0.70;;;14.90;62.90;;;13.52;47.64;100434.00;10357679;28;96513;-79
2022/04/16 13:59:48;;;;;;;1.25;0.90;;;14.80;63.50;;;13.44;48.92;100442.09;10359160;28;96472;-82
2022/04/16 14:10:13;;;;;;;3.13;1.80;;;14.60;68.20;;;12.93;57.03;100481.78;10320508;28;96608;-80
2022/04/16 14:15:16;;;;;;;3.57;2.30;;;14.40;71.50;;;12.44;62.00;100484.69;10320907;28;96678;-81
2022/04/16 14:20:19;;;;;;;5.73;3.30;;;13.90;78.10;;;12.10;64.82;100497.47;10352242;28;96533;-81
2022/04/16 14:25:22;;;;;;;6.47;3.13;;;13.60;83.20;;;11.77;67.48;100524.13;10344130;28;96583;-81
2022/04/16 14:30:25;;;;;;;3.30;2.27;;;13.20;88.80;;;11.52;68.60;100541.94;10364099;28;96686;-80
2022/04/16 14:35:28;;;;;;;3.83;2.63;;;13.00;93.00;;;11.38;68.62;100554.03;10378666;28;96574;-81
2022/04/16 14:40:31;;;;;;;5.00;3.30;;;12.80;93.20;;;11.22;69.15;100565.50;10369571;28;96563;-85
2022/04/16 14:45:39;;;;;;;6.17;3.83;;;12.70;95.00;;;11.14;69.95;100561.97;10335747;28;98361;-82
2022/04/16 14:50:42;;;;;;;7.80;6.37;;;12.60;95.70;;;11.08;70.63;100552.81;10379295;28;96431;-83
2022/04/16 14:55:46;;;;;;;6.27;3.33;;;12.50;97.10;;;11.02;70.61;100558.78;10353049;28;96697;-82
2022/04/16 15:00:52;;;;;;;9.97;8.63;;;12.50;96.70;;;10.97;70.97;100542.50;10365980;28;98233;-82
2022/04/16 15:05:55;;;;;;;3.63;2.63;;;12.40;97.50;;;10.94;71.26;100556.13;10374124;28;96405;-82
2022/04/16 15:10:58;;;;;;;3.73;2.47;;;12.40;98.10;;;10.93;71.04;100552.63;10342488;28;96749;-82
2022/04/16 15:16:01;;;;;;;4.80;4.10;;;12.40;98.20;;;10.91;71.72;100554.59;10373178;27;96473;-82
2022/04/16 15:21:05;;;;;;;7.63;5.97;;;12.40;98.40;;;10.93;71.86;100559.78;10446737;27;96482;-83
2022/04/16 15:26:09;;;;;;;3.27;2.20;;;12.40;99.40;;;10.92;71.01;100552.81;10428404;27;95843;-81
2022/04/16 15:31:29;;;;;;;4.30;3.30;;;12.40;98.40;;;10.91;70.96;100562.56;10401487;27;95886;-81
2022/04/16 15:36:32;;;;;;;4.00;2.27;;;12.40;99.00;;;10.86;71.34;100564.91;10381108;28;95691;-82
2022/04/16 15:41:35;;;;;;;5.77;3.00;;;12.30;99.90;;;10.86;71.51;100572.88;10378732;28;96950;-82
2022/04/16 15:46:43;;;;;;;5.10;2.67;;;12.30;99.90;;;10.90;72.18;100576.88;10383507;28;96982;-82
2022/04/16 15:51:47;;;;;;;5.17;2.70;;;12.30;99.90;;;10.88;71.63;100578.03;10352233;28;97053;-82
2022/04/16 15:56:50;;;;;;;3.07;2.23;;;12.40;99.80;;;10.83;73.19;100586.47;10326850;28;96631;-82
2022/04/16 16:01:53;;;;;;;3.47;2.47;;;12.30;99.90;;;10.78;73.93;100594.09;10338002;28;97381;-82
2022/04/16 16:06:56;;;;;;;4.23;2.50;;;12.20;99.90;;;10.73;74.02;100601.72;10332279;28;97422;-81
2022/04/16 16:11:59;;;;;;;3.10;1.93;;;12.20;99.90;;;10.69;74.29;100601.22;10333219;28;97854;-82
2022/04/16 16:17:04;;;;;;;3.37;1.97;;;12.10;99.90;;;10.67;74.30;100597.03;10322084;28;97018;-79
2022/04/16 16:22:08;;;;;;;2.93;1.70;;;12.10;99.90;;;10.65;74.24;100613.16;10330455;28;96638;-81
2022/04/16 16:27:11;;;;;;;3.07;2.20;;;12.10;99.90;;;10.64;74.74;100619.47;10356340;28;98137;-81
2022/04/16 16:32:16;;;;;;;3.87;2.33;;;12.10;99.90;;;10.65;74.63;100615.81;10329520;28;96779;-81
2022/04/16 16:37:19;;;;;;;4.47;2.10;;;12.10;99.90;;;10.65;74.41;100625.59;10327482;28;97744;-79
2022/04/16 16:42:23;;;;;;;11.37;7.70;;;12.10;99.90;;;10.64;74.44;100629.25;10352528;28;96592;-81
2022/04/16 16:47:26;;;;;;;5.93;4.33;;;12.10;99.90;;;10.66;74.31;100636.06;10357728;28;96786;-81
2022/04/16 16:52:29;;;;;;;6.40;3.50;;;12.10;99.90;;;10.69;74.05;100645.56;10326143;28;97793;-81
2022/04/16 16:57:32;;;;;;;7.43;5.43;;;12.20;99.90;;;10.71;74.13;100656.88;10374821;28;96671;-81
2022/04/16 17:07:56;;;;;;;17.93;10.77;;;12.20;99.90;;;10.70;74.83;100674.66;10331520;28;96688;-80
2022/04/16 17:12:59;;;;;;;15.63;9.97;;;12.20;99.90;;;10.68;74.30;100691.75;10329821;28;97000;-81
2022/04/16 17:23:24;;;;;;;6.77;3.23;;;12.10;99.90;;;10.55;65.14;100721.38;10374325;28;97552;-81
2022/04/16 17:28:29;;;;;;;4.37;2.30;;;12.00;98.30;;;10.36;53.88;100730.38;10354649;28;98097;-80
2022/04/16 17:33:33;;;;;;;2.20;1.40;;;11.80;82.10;;;10.24;54.29;100734.25;10354108;28;97751;-79
2022/04/16 17:38:38;;;;;;;4.40;2.20;;;11.70;80.20;;;10.15;54.32;100753.72;10338702;28;96752;-80
2022/04/16 17:43:41;;;;;;;4.07;2.37;;;11.60;79.30;;;10.05;54.89;100767.06;10341970;28;98156;-80
2022/04/16 17:48:45;;;;;;;4.60;2.93;;;11.50;79.10;;;9.96;56.66;100786.56;10343483;27;97094;-79
2022/04/16 17:53:47;;;;;;;4.10;2.57;;;11.40;81.00;;;9.86;56.86;100797.25;10362906;28;98252;-80
2022/04/16 17:58:52;;;;;;;3.83;2.20;;;11.30;81.30;;;9.67;57.18;100815.09;10333163;28;96705;-80
2022/04/16 18:03:55;;;;;;;4.07;2.03;;;11.10;81.40;;;9.53;58.25;100825.19;10354668;28;98179;-80
2022/04/16 18:08:58;;;;;;;3.47;2.30;;;11.10;82.60;;;9.39;58.62;100834.44;10321383;28;96813;-81
2022/04/16 18:14:05;;;;;;;9.27;4.63;;;10.90;83.00;;;9.32;58.70;100846.63;10320074;28;97393;-81
2022/04/16 18:19:08;;;;;;;5.90;3.30;;;10.80;83.50;;;9.20;58.88;100860.19;10326354;28;97075;-80
2022/04/16 18:24:11;;;;;;;3.87;2.87;;;10.70;83.40;;;9.04;59.26;100874.03;10309408;28;96746;-81
2022/04/16 18:29:15;;;;;;;4.40;2.47;;;10.60;83.80;;;8.95;58.60;100898.75;10335744;28;97699;-81
2022/04/16 18:34:18;;;;;;;5.23;3.50;;;10.50;83.30;;;8.88;57.85;100909.06;10319918;28;96516;-81
2022/04/16 18:39:21;;;;;;;3.93;2.30;;;10.40;82.30;;;8.72;56.39;100914.91;10314494;28;96661;-80
2022/04/16 18:44:24;;;;;;;4.53;2.53;;;10.30;79.80;;;8.64;56.25;100924.53;10339418;28;98825;-81
2022/04/16 18:49:27;;;;;;;3.30;2.00;;;10.20;79.50;;;8.50;56.14;100929.25;10346193;28;96961;-80
2022/04/16 18:54:30;;;;;;;3.33;2.03;;;10.00;78.60;;;8.41;55.77;100926.59;10333266;28;96823;-80
2022/04/16 18:59:33;;;;;;;3.83;2.27;;;9.90;78.10;;;8.37;56.71;100941.06;10347344;28;96594;-81
2022/04/16 19:09:58;;;;;;;5.65;2.70;;;9.90;79.80;;;8.36;57.10;100955.28;10355224;28;96581;-81
2022/04/16 19:15:01;;;;;;;5.10;2.83;;;9.90;79.70;;;8.35;57.96;100958.88;10334046;28;96894;-81
2022/04/16 19:20:06;;;;;;;8.00;4.43;;;9.90;80.00;;;8.31;57.48;100961.78;10366235;28;96624;-81
2022/04/16 19:25:08;;;;;;;7.93;3.27;;;9.80;79.70;;;8.31;57.76;100967.06;10337159;28;99032;-81
2022/04/16 19:30:11;;;;;;;5.80;3.50;;;9.80;80.00;;;8.30;57.43;100972.50;10331779;28;97013;-81
2022/04/16 19:35:15;;;;;;;4.67;2.83;;;9.90;79.90;;;8.31;57.47;100982.97;10304047;28;96565;-80
2022/04/16 19:40:23;;;;;;;5.03;2.27;;;9.80;79.70;;;8.32;56.85;100986.44;10337206;28;97087;-81
2022/04/16 19:45:35;;;;;;;3.37;2.10;;;9.90;79.20;;;8.31;56.40;100995.38;10365777;28;98798;-80
2022/04/16 19:50:38;;;;;;;2.87;1.60;;;9.90;78.50;;;8.28;55.66;100996.50;10299495;28;96537;-80
2022/04/16 19:55:42;;;;;;;3.70;2.10;;;9.90;77.80;;;8.22;52.73;100993.53;10364762;28;96547;-80
2022/04/16 20:00:54;;;;;;;4.50;1.57;;;9.80;74.50;;;8.18;49.68;100995.59;10369986;28;96521;-79
2022/04/16 20:06:22;;;;;;;2.50;1.50;;;9.70;69.90;;;8.15;49.59;101008.25;10353487;28;96756;-79
2022/04/16 20:11:25;;;;;;;4.43;1.80;;;9.70;69.10;;;8.15;50.47;101024.97;10369525;28;97967;-80
2022/04/16 20:16:28;;;;;;;4.40;1.60;;;9.60;69.70;;;8.15;50.68;101027.63;10316566;28;96515;-80
2022/04/16 20:21:31;;;;;;;2.93;1.80;;;9.70;70.40;;;8.15;50.66;101027.63;10364163;28;100087;-81
2022/04/16 20:26:34;;;;;;;4.57;2.03;;;9.70;69.60;;;8.14;49.86;101028.59;10357605;28;96593;-81
2022/04/16 20:31:37;;;;;;;9.57;3.70;;;9.70;69.30;;;8.13;50.11;101029.56;10386249;28;96687;-80
2022/04/16 20:36:40;;;;;;;5.63;2.90;;;9.70;68.20;;;8.10;49.68;101035.16;10349293;28;96602;-80
2022/04/16 20:47:08;;;;;;;6.40;2.58;;;9.60;67.90;;;8.07;48.66;101030.09;10333553;28;98092;-81
2022/04/16 20:57:32;;;;;;;8.77;4.00;;;9.60;67.10;;;8.03;48.69;101039.25;10326687;28;97198;-80
2022/04/16 21:02:34;;;;;;;9.80;5.20;;;9.50;66.40;;;8.01;48.62;101046.50;10320612;28;97882;-80
2022/04/16 21:07:37;;;;;;;14.77;7.13;;;9.60;66.70;;;7.98;48.60;101036.19;10314953;28;96595;-80
2022/04/16 21:12:41;;;;;;;8.90;4.63;;;9.50;66.00;;;7.97;48.95;101035.34;10310832;28;96664;-80
2022/04/16 21:17:44;;;;;;;5.33;2.93;;;9.50;66.20;;;7.92;46.87;101034.06;10308792;28;96875;-80
2022/04/16 21:22:53;;;;;;;4.80;2.40;;;9.50;63.90;;;7.86;47.09;101035.44;10318609;28;98415;-80
2022/04/16 21:27:56;;;;;;;4.67;2.60;;;9.40;63.70;;;7.86;47.60;101037.25;10311108;28;96610;-80
2022/04/16 21:32:59;;;;;;;6.57;2.83;;;9.40;64.20;;;7.83;46.78;101048.06;10361583;28;96540;-80
2022/04/16 21:38:02;;;;;;;5.83;2.50;;;9.40;63.50;;;7.80;46.89;101043.88;10346441;28;97273;-80
2022/04/16 21:43:05;;;;;;;3.73;2.30;;;9.30;62.90;;;7.79;47.15;101043.03;10314549;28;98666;-79
2022/04/16 21:48:08;;;;;;;3.33;1.77;;;9.30;63.40;;;7.79;47.47;101050.13;10305795;28;96873;-78
2022/04/16 21:53:13;;;;;;;2.87;1.77;;;9.30;63.60;;;7.77;47.22;101060.00;10329345;28;96661;-80
2022/04/16 21:58:17;;;;;;;4.70;2.50;;;9.30;63.30;;;7.73;47.41;101062.06;10313651;28;97066;-79